sensor_id;sensor_type;location;lat;lon;timestamp;P1;durP1;ratioP1;P2;durP2;ratioP2
67456;SDS011;54319;52.038;4.640;2022-07-22T00:01:10;10.73;;;1.83;;
67456;SDS011;54319;52.038;4.640;2022-07-22T00:03:36;7.45;;;2.05;;
67456;SDS011;54319;52.038;4.640;2022-07-22T00:06:04;10.05;;;1.98;;
67456;SDS011;54319;52.038;4.640;2022-07-22T00:08:31;7.57;;;1.90;;
67456;SDS011;54319;52.038;4.640;2022-07-22T00:13:26;4.53;;;2.08;;
67456;SDS011;54319;52.038;4.640;2022-07-22T00:15:53;5.18;;;1.80;;
67456;SDS011;54319;52.038;4.640;2022-07-22T00:18:20;5.70;;;1.90;;
67456;SDS011;54319;52.038;4.640;2022-07-22T00:20:47;8.48;;;1.92;;
67456;SDS011;54319;52.038;4.640;2022-07-22T00:23:14;3.20;;;1.60;;
67456;SDS011;54319;52.038;4.640;2022-07-22T00:25:41;7.05;;;2.00;;
67456;SDS011;54319;52.038;4.640;2022-07-22T00:28:09;4.85;;;1.70;;
67456;SDS011;54319;52.038;4.640;2022-07-22T00:30:37;7.95;;;1.60;;
67456;SDS011;54319;52.038;4.640;2022-07-22T00:33:04;6.88;;;2.22;;
67456;SDS011;54319;52.038;4.640;2022-07-22T00:35:31;8.18;;;2.10;;
67456;SDS011;54319;52.038;4.640;2022-07-22T00:37:58;5.97;;;2.00;;
67456;SDS011;54319;52.038;4.640;2022-07-22T00:40:25;4.95;;;1.98;;
67456;SDS011;54319;52.038;4.640;2022-07-22T00:42:51;11.50;;;1.93;;
67456;SDS011;54319;52.038;4.640;2022-07-22T00:45:20;2.97;;;1.65;;
67456;SDS011;54319;52.038;4.640;2022-07-22T00:47:47;2.63;;;1.50;;
67456;SDS011;54319;52.038;4.640;2022-07-22T00:50:14;7.63;;;1.80;;
67456;SDS011;54319;52.038;4.640;2022-07-22T00:52:42;6.75;;;2.35;;
67456;SDS011;54319;52.038;4.640;2022-07-22T00:55:10;3.00;;;1.67;;
67456;SDS011;54319;52.038;4.640;2022-07-22T00:57:36;7.28;;;2.03;;
67456;SDS011;54319;52.038;4.640;2022-07-22T01:00:05;7.10;;;2.00;;
67456;SDS011;54319;52.038;4.640;2022-07-22T01:02:35;5.80;;;1.77;;
67456;SDS011;54319;52.038;4.640;2022-07-22T01:05:04;5.57;;;1.80;;
67456;SDS011;54319;52.038;4.640;2022-07-22T01:07:31;5.93;;;1.80;;
67456;SDS011;54319;52.038;4.640;2022-07-22T01:09:59;3.90;;;1.70;;
67456;SDS011;54319;52.038;4.640;2022-07-22T01:12:25;7.00;;;2.00;;
67456;SDS011;54319;52.038;4.640;2022-07-22T01:17:19;6.55;;;2.00;;
67456;SDS011;54319;52.038;4.640;2022-07-22T01:19:48;8.52;;;1.75;;
67456;SDS011;54319;52.038;4.640;2022-07-22T01:22:16;5.57;;;1.77;;
67456;SDS011;54319;52.038;4.640;2022-07-22T01:24:43;8.13;;;2.00;;
67456;SDS011;54319;52.038;4.640;2022-07-22T01:27:10;6.27;;;2.00;;
67456;SDS011;54319;52.038;4.640;2022-07-22T01:29:37;6.40;;;1.83;;
67456;SDS011;54319;52.038;4.640;2022-07-22T01:32:04;6.90;;;2.30;;
67456;SDS011;54319;52.038;4.640;2022-07-22T01:34:31;6.25;;;1.80;;
67456;SDS011;54319;52.038;4.640;2022-07-22T01:36:58;5.95;;;1.85;;
67456;SDS011;54319;52.038;4.640;2022-07-22T01:39:26;10.60;;;1.92;;
67456;SDS011;54319;52.038;4.640;2022-07-22T01:41:53;7.15;;;1.95;;
67456;SDS011;54319;52.038;4.640;2022-07-22T01:44:20;9.23;;;2.00;;
67456;SDS011;54319;52.038;4.640;2022-07-22T01:46:47;7.95;;;1.77;;
67456;SDS011;54319;52.038;4.640;2022-07-22T01:51:41;3.17;;;1.48;;
67456;SDS011;54319;52.038;4.640;2022-07-22T01:54:09;6.40;;;2.10;;
67456;SDS011;54319;52.038;4.640;2022-07-22T01:56:37;5.60;;;1.80;;
67456;SDS011;54319;52.038;4.640;2022-07-22T01:59:04;8.13;;;1.80;;
67456;SDS011;54319;52.038;4.640;2022-07-22T02:01:32;7.00;;;1.80;;
67456;SDS011;54319;52.038;4.640;2022-07-22T02:03:58;6.53;;;2.13;;
67456;SDS011;54319;52.038;4.640;2022-07-22T02:06:26;7.05;;;1.92;;
67456;SDS011;54319;52.038;4.640;2022-07-22T02:08:53;9.83;;;1.80;;
67456;SDS011;54319;52.038;4.640;2022-07-22T02:11:20;5.15;;;1.52;;
67456;SDS011;54319;52.038;4.640;2022-07-22T02:13:48;6.68;;;1.95;;
67456;SDS011;54319;52.038;4.640;2022-07-22T02:16:14;5.97;;;1.60;;
67456;SDS011;54319;52.038;4.640;2022-07-22T02:18:41;4.72;;;1.67;;
67456;SDS011;54319;52.038;4.640;2022-07-22T02:21:08;6.10;;;1.98;;
67456;SDS011;54319;52.038;4.640;2022-07-22T02:23:35;9.00;;;1.73;;
67456;SDS011;54319;52.038;4.640;2022-07-22T02:26:02;4.50;;;2.65;;
67456;SDS011;54319;52.038;4.640;2022-07-22T02:28:29;5.63;;;1.90;;
67456;SDS011;54319;52.038;4.640;2022-07-22T02:33:24;5.07;;;1.83;;
67456;SDS011;54319;52.038;4.640;2022-07-22T02:35:52;5.50;;;2.00;;
67456;SDS011;54319;52.038;4.640;2022-07-22T02:38:18;5.90;;;1.63;;
67456;SDS011;54319;52.038;4.640;2022-07-22T02:40:45;5.45;;;1.77;;
67456;SDS011;54319;52.038;4.640;2022-07-22T02:43:12;4.33;;;1.53;;
67456;SDS011;54319;52.038;4.640;2022-07-22T02:45:40;4.78;;;1.70;;
67456;SDS011;54319;52.038;4.640;2022-07-22T02:48:08;4.07;;;1.80;;
67456;SDS011;54319;52.038;4.640;2022-07-22T02:50:35;4.45;;;1.35;;
67456;SDS011;54319;52.038;4.640;2022-07-22T02:53:03;8.35;;;2.15;;
67456;SDS011;54319;52.038;4.640;2022-07-22T02:55:30;6.78;;;2.00;;
67456;SDS011;54319;52.038;4.640;2022-07-22T02:57:56;2.80;;;1.60;;
67456;SDS011;54319;52.038;4.640;2022-07-22T03:00:23;5.50;;;2.00;;
67456;SDS011;54319;52.038;4.640;2022-07-22T03:02:50;4.43;;;1.90;;
67456;SDS011;54319;52.038;4.640;2022-07-22T03:05:18;6.60;;;1.65;;
67456;SDS011;54319;52.038;4.640;2022-07-22T03:07:45;7.75;;;1.90;;
67456;SDS011;54319;52.038;4.640;2022-07-22T03:10:13;3.83;;;1.63;;
67456;SDS011;54319;52.038;4.640;2022-07-22T03:12:40;3.88;;;1.80;;
67456;SDS011;54319;52.038;4.640;2022-07-22T03:15:07;6.22;;;1.58;;
67456;SDS011;54319;52.038;4.640;2022-07-22T03:17:34;5.10;;;1.65;;
67456;SDS011;54319;52.038;4.640;2022-07-22T03:22:29;8.43;;;1.80;;
67456;SDS011;54319;52.038;4.640;2022-07-22T03:24:56;5.28;;;1.80;;
67456;SDS011;54319;52.038;4.640;2022-07-22T03:27:23;5.97;;;1.60;;
67456;SDS011;54319;52.038;4.640;2022-07-22T03:32:17;4.88;;;1.80;;
67456;SDS011;54319;52.038;4.640;2022-07-22T03:34:44;8.25;;;1.70;;
67456;SDS011;54319;52.038;4.640;2022-07-22T03:37:11;4.95;;;1.55;;
67456;SDS011;54319;52.038;4.640;2022-07-22T03:39:39;9.65;;;2.53;;
67456;SDS011;54319;52.038;4.640;2022-07-22T03:42:06;5.55;;;1.88;;
67456;SDS011;54319;52.038;4.640;2022-07-22T03:44:33;5.47;;;1.88;;
67456;SDS011;54319;52.038;4.640;2022-07-22T03:47:00;7.30;;;1.83;;
67456;SDS011;54319;52.038;4.640;2022-07-22T03:49:27;4.35;;;1.88;;
67456;SDS011;54319;52.038;4.640;2022-07-22T03:54:21;6.10;;;2.10;;
67456;SDS011;54319;52.038;4.640;2022-07-22T03:56:49;4.30;;;1.50;;
67456;SDS011;54319;52.038;4.640;2022-07-22T03:59:17;4.45;;;1.42;;
67456;SDS011;54319;52.038;4.640;2022-07-22T04:01:43;8.43;;;1.93;;
67456;SDS011;54319;52.038;4.640;2022-07-22T04:04:10;3.90;;;1.70;;
67456;SDS011;54319;52.038;4.640;2022-07-22T04:06:37;6.33;;;1.77;;
67456;SDS011;54319;52.038;4.640;2022-07-22T04:11:31;5.28;;;1.67;;
67456;SDS011;54319;52.038;4.640;2022-07-22T04:13:59;5.72;;;1.67;;
67456;SDS011;54319;52.038;4.640;2022-07-22T04:16:26;4.47;;;1.42;;
67456;SDS011;54319;52.038;4.640;2022-07-22T04:18:53;5.63;;;1.50;;
67456;SDS011;54319;52.038;4.640;2022-07-22T04:21:20;3.75;;;1.30;;
67456;SDS011;54319;52.038;4.640;2022-07-22T04:23:46;5.70;;;1.60;;
67456;SDS011;54319;52.038;4.640;2022-07-22T04:26:14;7.03;;;1.48;;
67456;SDS011;54319;52.038;4.640;2022-07-22T04:28:40;4.83;;;1.60;;
67456;SDS011;54319;52.038;4.640;2022-07-22T04:31:09;3.70;;;1.65;;
67456;SDS011;54319;52.038;4.640;2022-07-22T04:33:36;7.32;;;1.50;;
67456;SDS011;54319;52.038;4.640;2022-07-22T04:36:03;5.43;;;1.40;;
67456;SDS011;54319;52.038;4.640;2022-07-22T04:40:57;4.90;;;1.58;;
67456;SDS011;54319;52.038;4.640;2022-07-22T04:43:26;3.40;;;1.40;;
67456;SDS011;54319;52.038;4.640;2022-07-22T04:45:54;7.68;;;1.58;;
67456;SDS011;54319;52.038;4.640;2022-07-22T04:48:22;5.63;;;1.55;;
67456;SDS011;54319;52.038;4.640;2022-07-22T04:50:49;9.82;;;1.92;;
67456;SDS011;54319;52.038;4.640;2022-07-22T04:53:16;6.10;;;1.65;;
67456;SDS011;54319;52.038;4.640;2022-07-22T04:55:43;4.88;;;1.50;;
67456;SDS011;54319;52.038;4.640;2022-07-22T04:58:09;6.77;;;2.10;;
67456;SDS011;54319;52.038;4.640;2022-07-22T05:00:36;3.30;;;1.33;;
67456;SDS011;54319;52.038;4.640;2022-07-22T05:03:03;6.60;;;1.57;;
67456;SDS011;54319;52.038;4.640;2022-07-22T05:05:32;6.20;;;2.30;;
67456;SDS011;54319;52.038;4.640;2022-07-22T05:07:59;5.63;;;1.52;;
67456;SDS011;54319;52.038;4.640;2022-07-22T05:10:26;6.38;;;1.83;;
67456;SDS011;54319;52.038;4.640;2022-07-22T05:12:54;9.52;;;1.60;;
67456;SDS011;54319;52.038;4.640;2022-07-22T05:15:21;5.55;;;1.90;;
67456;SDS011;54319;52.038;4.640;2022-07-22T05:17:48;3.25;;;1.40;;
67456;SDS011;54319;52.038;4.640;2022-07-22T05:20:15;6.35;;;1.60;;
67456;SDS011;54319;52.038;4.640;2022-07-22T05:22:43;5.77;;;1.50;;
67456;SDS011;54319;52.038;4.640;2022-07-22T05:25:11;2.88;;;1.50;;
67456;SDS011;54319;52.038;4.640;2022-07-22T05:27:38;7.35;;;1.50;;
67456;SDS011;54319;52.038;4.640;2022-07-22T05:30:05;5.25;;;1.52;;
67456;SDS011;54319;52.038;4.640;2022-07-22T05:32:33;6.22;;;1.90;;
67456;SDS011;54319;52.038;4.640;2022-07-22T05:35:00;2.42;;;1.40;;
67456;SDS011;54319;52.038;4.640;2022-07-22T05:37:27;4.67;;;1.50;;
67456;SDS011;54319;52.038;4.640;2022-07-22T05:39:55;4.93;;;1.40;;
67456;SDS011;54319;52.038;4.640;2022-07-22T05:42:23;3.58;;;1.40;;
67456;SDS011;54319;52.038;4.640;2022-07-22T05:44:50;2.97;;;1.38;;
67456;SDS011;54319;52.038;4.640;2022-07-22T05:47:17;3.45;;;1.38;;
67456;SDS011;54319;52.038;4.640;2022-07-22T05:52:10;6.05;;;1.45;;
67456;SDS011;54319;52.038;4.640;2022-07-22T05:54:37;4.95;;;1.45;;
67456;SDS011;54319;52.038;4.640;2022-07-22T05:57:06;4.97;;;1.63;;
67456;SDS011;54319;52.038;4.640;2022-07-22T05:59:34;7.53;;;1.95;;
67456;SDS011;54319;52.038;4.640;2022-07-22T06:02:01;2.88;;;1.30;;
67456;SDS011;54319;52.038;4.640;2022-07-22T06:04:29;7.18;;;1.75;;
67456;SDS011;54319;52.038;4.640;2022-07-22T06:06:55;3.43;;;1.53;;
67456;SDS011;54319;52.038;4.640;2022-07-22T06:09:22;4.63;;;1.23;;
67456;SDS011;54319;52.038;4.640;2022-07-22T06:11:49;2.70;;;1.25;;
67456;SDS011;54319;52.038;4.640;2022-07-22T06:14:18;6.20;;;1.50;;
67456;SDS011;54319;52.038;4.640;2022-07-22T06:16:45;6.05;;;1.40;;
67456;SDS011;54319;52.038;4.640;2022-07-22T06:19:12;4.20;;;1.48;;
67456;SDS011;54319;52.038;4.640;2022-07-22T06:21:38;1.42;;;1.10;;
67456;SDS011;54319;52.038;4.640;2022-07-22T06:26:32;5.00;;;1.40;;
67456;SDS011;54319;52.038;4.640;2022-07-22T06:28:59;1.65;;;1.05;;
67456;SDS011;54319;52.038;4.640;2022-07-22T06:31:28;2.55;;;1.20;;
67456;SDS011;54319;52.038;4.640;2022-07-22T06:33:54;6.28;;;1.40;;
67456;SDS011;54319;52.038;4.640;2022-07-22T06:36:21;5.18;;;1.40;;
67456;SDS011;54319;52.038;4.640;2022-07-22T06:38:48;5.50;;;1.15;;
67456;SDS011;54319;52.038;4.640;2022-07-22T06:43:45;2.45;;;1.10;;
67456;SDS011;54319;52.038;4.640;2022-07-22T06:46:12;2.22;;;1.25;;
67456;SDS011;54319;52.038;4.640;2022-07-22T06:48:40;7.90;;;1.10;;
67456;SDS011;54319;52.038;4.640;2022-07-22T06:51:07;3.38;;;1.08;;
67456;SDS011;54319;52.038;4.640;2022-07-22T06:53:34;1.92;;;1.10;;
67456;SDS011;54319;52.038;4.640;2022-07-22T06:56:01;3.00;;;1.25;;
67456;SDS011;54319;52.038;4.640;2022-07-22T06:58:28;5.18;;;1.05;;
67456;SDS011;54319;52.038;4.640;2022-07-22T07:00:55;2.55;;;1.13;;
67456;SDS011;54319;52.038;4.640;2022-07-22T07:03:22;4.85;;;1.20;;
67456;SDS011;54319;52.038;4.640;2022-07-22T07:05:52;2.47;;;1.00;;
67456;SDS011;54319;52.038;4.640;2022-07-22T07:08:18;2.72;;;1.00;;
67456;SDS011;54319;52.038;4.640;2022-07-22T07:10:46;3.22;;;1.05;;
67456;SDS011;54319;52.038;4.640;2022-07-22T07:20:34;3.25;;;1.00;;
67456;SDS011;54319;52.038;4.640;2022-07-22T07:23:02;3.17;;;0.95;;
67456;SDS011;54319;52.038;4.640;2022-07-22T07:25:29;3.78;;;1.10;;
67456;SDS011;54319;52.038;4.640;2022-07-22T07:27:56;2.38;;;0.95;;
67456;SDS011;54319;52.038;4.640;2022-07-22T07:30:24;3.08;;;1.30;;
67456;SDS011;54319;52.038;4.640;2022-07-22T07:32:50;2.35;;;1.02;;
67456;SDS011;54319;52.038;4.640;2022-07-22T07:35:17;4.93;;;1.13;;
67456;SDS011;54319;52.038;4.640;2022-07-22T07:37:44;5.93;;;0.95;;
67456;SDS011;54319;52.038;4.640;2022-07-22T07:40:13;4.90;;;1.13;;
67456;SDS011;54319;52.038;4.640;2022-07-22T07:42:40;5.25;;;1.30;;
67456;SDS011;54319;52.038;4.640;2022-07-22T07:45:08;3.45;;;1.17;;
67456;SDS011;54319;52.038;4.640;2022-07-22T07:47:35;2.15;;;1.20;;
67456;SDS011;54319;52.038;4.640;2022-07-22T07:50:03;4.40;;;1.35;;
67456;SDS011;54319;52.038;4.640;2022-07-22T07:52:30;7.05;;;1.70;;
67456;SDS011;54319;52.038;4.640;2022-07-22T07:54:57;3.50;;;1.05;;
67456;SDS011;54319;52.038;4.640;2022-07-22T07:57:25;1.95;;;1.02;;
67456;SDS011;54319;52.038;4.640;2022-07-22T07:59:53;2.30;;;1.10;;
67456;SDS011;54319;52.038;4.640;2022-07-22T08:02:19;3.33;;;1.08;;
67456;SDS011;54319;52.038;4.640;2022-07-22T08:04:46;3.67;;;1.33;;
67456;SDS011;54319;52.038;4.640;2022-07-22T08:07:13;1.60;;;1.02;;
67456;SDS011;54319;52.038;4.640;2022-07-22T08:09:41;3.15;;;1.05;;
67456;SDS011;54319;52.038;4.640;2022-07-22T08:12:08;4.03;;;1.60;;
67456;SDS011;54319;52.038;4.640;2022-07-22T08:14:37;6.25;;;1.33;;
67456;SDS011;54319;52.038;4.640;2022-07-22T08:17:04;7.43;;;1.70;;
67456;SDS011;54319;52.038;4.640;2022-07-22T08:19:31;4.45;;;1.50;;
67456;SDS011;54319;52.038;4.640;2022-07-22T08:21:58;3.92;;;1.27;;
67456;SDS011;54319;52.038;4.640;2022-07-22T08:24:25;3.28;;;1.40;;
67456;SDS011;54319;52.038;4.640;2022-07-22T08:26:51;5.93;;;1.45;;
67456;SDS011;54319;52.038;4.640;2022-07-22T08:29:19;4.05;;;2.10;;
67456;SDS011;54319;52.038;4.640;2022-07-22T08:31:47;2.90;;;1.30;;
67456;SDS011;54319;52.038;4.640;2022-07-22T08:34:14;2.30;;;1.48;;
67456;SDS011;54319;52.038;4.640;2022-07-22T08:36:41;3.65;;;1.50;;
67456;SDS011;54319;52.038;4.640;2022-07-22T08:41:35;5.03;;;1.40;;
67456;SDS011;54319;52.038;4.640;2022-07-22T08:44:04;1.25;;;1.10;;
67456;SDS011;54319;52.038;4.640;2022-07-22T08:46:32;3.83;;;1.00;;
67456;SDS011;54319;52.038;4.640;2022-07-22T08:49:01;3.03;;;1.30;;
67456;SDS011;54319;52.038;4.640;2022-07-22T08:51:28;3.72;;;1.38;;
67456;SDS011;54319;52.038;4.640;2022-07-22T08:53:55;2.90;;;1.10;;
67456;SDS011;54319;52.038;4.640;2022-07-22T08:56:22;2.53;;;1.00;;
67456;SDS011;54319;52.038;4.640;2022-07-22T08:58:49;3.67;;;1.60;;
67456;SDS011;54319;52.038;4.640;2022-07-22T09:01:17;3.05;;;1.17;;
67456;SDS011;54319;52.038;4.640;2022-07-22T09:03:44;4.78;;;1.38;;
67456;SDS011;54319;52.038;4.640;2022-07-22T09:06:15;2.67;;;0.98;;
67456;SDS011;54319;52.038;4.640;2022-07-22T09:08:53;2.03;;;1.13;;
67456;SDS011;54319;52.038;4.640;2022-07-22T09:11:22;2.25;;;1.38;;
67456;SDS011;54319;52.038;4.640;2022-07-22T09:13:50;4.32;;;1.33;;
67456;SDS011;54319;52.038;4.640;2022-07-22T09:19:06;2.53;;;1.30;;
67456;SDS011;54319;52.038;4.640;2022-07-22T09:21:36;1.75;;;1.20;;
67456;SDS011;54319;52.038;4.640;2022-07-22T09:24:05;3.72;;;1.30;;
67456;SDS011;54319;52.038;4.640;2022-07-22T09:26:33;3.47;;;1.25;;
67456;SDS011;54319;52.038;4.640;2022-07-22T09:29:02;3.35;;;1.10;;
67456;SDS011;54319;52.038;4.640;2022-07-22T09:31:30;1.65;;;1.15;;
67456;SDS011;54319;52.038;4.640;2022-07-22T09:33:59;2.65;;;0.95;;
67456;SDS011;54319;52.038;4.640;2022-07-22T09:36:26;1.17;;;0.90;;
67456;SDS011;54319;52.038;4.640;2022-07-22T09:38:54;7.32;;;0.90;;
67456;SDS011;54319;52.038;4.640;2022-07-22T09:41:22;4.93;;;1.13;;
67456;SDS011;54319;52.038;4.640;2022-07-22T09:43:49;3.55;;;1.10;;
67456;SDS011;54319;52.038;4.640;2022-07-22T09:46:16;3.72;;;1.00;;
67456;SDS011;54319;52.038;4.640;2022-07-22T09:48:43;2.05;;;1.00;;
67456;SDS011;54319;52.038;4.640;2022-07-22T09:51:10;7.25;;;1.20;;
67456;SDS011;54319;52.038;4.640;2022-07-22T09:53:37;3.20;;;1.20;;
67456;SDS011;54319;52.038;4.640;2022-07-22T09:56:05;3.20;;;1.08;;
67456;SDS011;54319;52.038;4.640;2022-07-22T09:58:33;4.05;;;1.33;;
67456;SDS011;54319;52.038;4.640;2022-07-22T10:01:03;5.45;;;1.20;;
67456;SDS011;54319;52.038;4.640;2022-07-22T10:03:32;4.30;;;1.23;;
67456;SDS011;54319;52.038;4.640;2022-07-22T10:06:02;2.97;;;1.48;;
67456;SDS011;54319;52.038;4.640;2022-07-22T10:08:30;4.05;;;1.60;;
67456;SDS011;54319;52.038;4.640;2022-07-22T10:11:00;4.20;;;1.25;;
67456;SDS011;54319;52.038;4.640;2022-07-22T10:13:29;3.50;;;1.35;;
67456;SDS011;54319;52.038;4.640;2022-07-22T10:15:57;6.25;;;1.17;;
67456;SDS011;54319;52.038;4.640;2022-07-22T10:18:25;3.72;;;1.38;;
67456;SDS011;54319;52.038;4.640;2022-07-22T10:21:03;5.68;;;1.42;;
67456;SDS011;54319;52.038;4.640;2022-07-22T10:23:31;4.55;;;1.20;;
67456;SDS011;54319;52.038;4.640;2022-07-22T10:25:59;1.90;;;1.20;;
67456;SDS011;54319;52.038;4.640;2022-07-22T10:28:26;3.00;;;1.20;;
67456;SDS011;54319;52.038;4.640;2022-07-22T10:31:16;3.05;;;1.30;;
67456;SDS011;54319;52.038;4.640;2022-07-22T10:33:44;1.55;;;1.00;;
67456;SDS011;54319;52.038;4.640;2022-07-22T10:36:14;3.50;;;1.25;;
67456;SDS011;54319;52.038;4.640;2022-07-22T10:39:04;6.30;;;1.33;;
67456;SDS011;54319;52.038;4.640;2022-07-22T10:41:34;3.83;;;1.17;;
67456;SDS011;54319;52.038;4.640;2022-07-22T10:44:02;2.38;;;1.27;;
67456;SDS011;54319;52.038;4.640;2022-07-22T10:49:18;2.97;;;1.20;;
67456;SDS011;54319;52.038;4.640;2022-07-22T10:57:36;2.28;;;1.42;;
67456;SDS011;54319;52.038;4.640;2022-07-22T11:00:03;5.47;;;1.83;;
67456;SDS011;54319;52.038;4.640;2022-07-22T11:02:32;6.55;;;2.05;;
67456;SDS011;54319;52.038;4.640;2022-07-22T11:05:00;1.85;;;1.60;;
67456;SDS011;54319;52.038;4.640;2022-07-22T11:07:27;4.60;;;1.60;;
67456;SDS011;54319;52.038;4.640;2022-07-22T11:10:07;3.55;;;1.60;;
67456;SDS011;54319;52.038;4.640;2022-07-22T11:12:35;1.83;;;1.52;;
67456;SDS011;54319;52.038;4.640;2022-07-22T11:15:03;3.85;;;1.50;;
67456;SDS011;54319;52.038;4.640;2022-07-22T11:17:32;2.35;;;1.50;;
67456;SDS011;54319;52.038;4.640;2022-07-22T11:20:00;5.97;;;1.77;;
67456;SDS011;54319;52.038;4.640;2022-07-22T11:22:28;4.75;;;1.80;;
67456;SDS011;54319;52.038;4.640;2022-07-22T11:24:55;3.20;;;1.33;;
67456;SDS011;54319;52.038;4.640;2022-07-22T11:27:22;2.65;;;1.40;;
67456;SDS011;54319;52.038;4.640;2022-07-22T11:29:51;2.40;;;1.58;;
67456;SDS011;54319;52.038;4.640;2022-07-22T11:32:22;2.25;;;1.70;;
67456;SDS011;54319;52.038;4.640;2022-07-22T11:34:52;3.05;;;1.33;;
67456;SDS011;54319;52.038;4.640;2022-07-22T11:37:19;3.78;;;1.50;;
67456;SDS011;54319;52.038;4.640;2022-07-22T11:39:49;2.92;;;1.52;;
67456;SDS011;54319;52.038;4.640;2022-07-22T11:42:17;3.92;;;1.48;;
67456;SDS011;54319;52.038;4.640;2022-07-22T11:44:44;2.17;;;1.25;;
67456;SDS011;54319;52.038;4.640;2022-07-22T11:47:11;4.82;;;1.60;;
67456;SDS011;54319;52.038;4.640;2022-07-22T11:49:38;2.15;;;1.10;;
67456;SDS011;54319;52.038;4.640;2022-07-22T11:54:37;2.35;;;1.27;;
67456;SDS011;54319;52.038;4.640;2022-07-22T11:57:04;2.15;;;1.23;;
67456;SDS011;54319;52.038;4.640;2022-07-22T11:59:32;3.67;;;1.50;;
67456;SDS011;54319;52.038;4.640;2022-07-22T12:02:00;1.77;;;1.15;;
67456;SDS011;54319;52.038;4.640;2022-07-22T12:04:28;3.40;;;1.40;;
67456;SDS011;54319;52.038;4.640;2022-07-22T12:06:58;4.13;;;1.50;;
67456;SDS011;54319;52.038;4.640;2022-07-22T12:09:30;2.65;;;1.35;;
67456;SDS011;54319;52.038;4.640;2022-07-22T12:11:59;2.25;;;1.40;;
67456;SDS011;54319;52.038;4.640;2022-07-22T12:14:27;3.50;;;1.42;;
67456;SDS011;54319;52.038;4.640;2022-07-22T12:16:56;4.90;;;1.65;;
67456;SDS011;54319;52.038;4.640;2022-07-22T12:19:24;2.00;;;1.23;;
67456;SDS011;54319;52.038;4.640;2022-07-22T12:21:55;4.25;;;1.30;;
67456;SDS011;54319;52.038;4.640;2022-07-22T12:24:26;5.43;;;1.45;;
67456;SDS011;54319;52.038;4.640;2022-07-22T12:26:56;4.75;;;1.50;;
67456;SDS011;54319;52.038;4.640;2022-07-22T12:29:25;2.90;;;1.30;;
67456;SDS011;54319;52.038;4.640;2022-07-22T12:31:55;3.38;;;1.30;;
67456;SDS011;54319;52.038;4.640;2022-07-22T12:34:29;2.97;;;1.25;;
67456;SDS011;54319;52.038;4.640;2022-07-22T12:36:57;3.42;;;0.93;;
67456;SDS011;54319;52.038;4.640;2022-07-22T12:39:25;1.30;;;0.90;;
67456;SDS011;54319;52.038;4.640;2022-07-22T12:41:53;1.58;;;0.93;;
67456;SDS011;54319;52.038;4.640;2022-07-22T12:44:23;2.70;;;1.20;;
67456;SDS011;54319;52.038;4.640;2022-07-22T12:46:52;3.75;;;1.10;;
67456;SDS011;54319;52.038;4.640;2022-07-22T12:49:21;2.20;;;1.33;;
67456;SDS011;54319;52.038;4.640;2022-07-22T12:52:04;1.23;;;0.77;;
67456;SDS011;54319;52.038;4.640;2022-07-22T12:54:35;3.13;;;1.38;;
67456;SDS011;54319;52.038;4.640;2022-07-22T12:57:03;4.20;;;1.17;;
67456;SDS011;54319;52.038;4.640;2022-07-22T12:59:32;4.05;;;1.27;;
67456;SDS011;54319;52.038;4.640;2022-07-22T13:01:59;1.75;;;1.05;;
67456;SDS011;54319;52.038;4.640;2022-07-22T13:04:26;3.78;;;1.17;;
67456;SDS011;54319;52.038;4.640;2022-07-22T13:06:53;2.47;;;1.00;;
67456;SDS011;54319;52.038;4.640;2022-07-22T13:11:46;3.92;;;1.30;;
67456;SDS011;54319;52.038;4.640;2022-07-22T13:14:15;2.05;;;1.20;;
67456;SDS011;54319;52.038;4.640;2022-07-22T13:16:43;1.42;;;0.82;;
67456;SDS011;54319;52.038;4.640;2022-07-22T13:19:10;3.28;;;1.73;;
67456;SDS011;54319;52.038;4.640;2022-07-22T13:21:37;2.28;;;1.00;;
67456;SDS011;54319;52.038;4.640;2022-07-22T13:24:05;2.55;;;1.20;;
67456;SDS011;54319;52.038;4.640;2022-07-22T13:26:32;1.45;;;1.13;;
67456;SDS011;54319;52.038;4.640;2022-07-22T13:29:00;2.30;;;1.05;;
67456;SDS011;54319;52.038;4.640;2022-07-22T13:31:26;2.42;;;0.90;;
67456;SDS011;54319;52.038;4.640;2022-07-22T13:33:55;2.10;;;1.15;;
67456;SDS011;54319;52.038;4.640;2022-07-22T13:36:22;1.83;;;0.95;;
67456;SDS011;54319;52.038;4.640;2022-07-22T13:38:49;2.83;;;1.00;;
67456;SDS011;54319;52.038;4.640;2022-07-22T13:41:17;2.72;;;0.90;;
67456;SDS011;54319;52.038;4.640;2022-07-22T13:43:45;1.13;;;0.90;;
67456;SDS011;54319;52.038;4.640;2022-07-22T13:46:14;1.70;;;1.10;;
67456;SDS011;54319;52.038;4.640;2022-07-22T13:48:41;2.50;;;1.20;;
67456;SDS011;54319;52.038;4.640;2022-07-22T13:53:37;2.33;;;0.90;;
67456;SDS011;54319;52.038;4.640;2022-07-22T14:00:58;1.25;;;1.00;;
67456;SDS011;54319;52.038;4.640;2022-07-22T14:03:25;3.33;;;1.10;;
67456;SDS011;54319;52.038;4.640;2022-07-22T14:05:53;3.55;;;1.20;;
67456;SDS011;54319;52.038;4.640;2022-07-22T14:08:21;1.90;;;1.13;;
67456;SDS011;54319;52.038;4.640;2022-07-22T14:10:49;3.30;;;1.60;;
67456;SDS011;54319;52.038;4.640;2022-07-22T14:13:16;3.03;;;1.33;;
67456;SDS011;54319;52.038;4.640;2022-07-22T14:15:43;1.10;;;1.00;;
67456;SDS011;54319;52.038;4.640;2022-07-22T14:18:09;5.28;;;1.83;;
67456;SDS011;54319;52.038;4.640;2022-07-22T14:20:37;2.58;;;1.20;;
67456;SDS011;54319;52.038;4.640;2022-07-22T14:23:05;2.30;;;1.33;;
67456;SDS011;54319;52.038;4.640;2022-07-22T14:25:36;1.45;;;1.00;;
67456;SDS011;54319;52.038;4.640;2022-07-22T14:28:03;2.42;;;1.15;;
67456;SDS011;54319;52.038;4.640;2022-07-22T14:30:31;4.30;;;1.40;;
67456;SDS011;54319;52.038;4.640;2022-07-22T14:32:59;1.85;;;1.05;;
67456;SDS011;54319;52.038;4.640;2022-07-22T14:35:26;2.95;;;1.50;;
67456;SDS011;54319;52.038;4.640;2022-07-22T14:37:53;1.65;;;1.20;;
67456;SDS011;54319;52.038;4.640;2022-07-22T14:40:20;1.45;;;1.10;;
67456;SDS011;54319;52.038;4.640;2022-07-22T14:42:48;2.60;;;1.33;;
67456;SDS011;54319;52.038;4.640;2022-07-22T14:45:16;2.95;;;1.10;;
67456;SDS011;54319;52.038;4.640;2022-07-22T14:47:44;3.15;;;1.13;;
67456;SDS011;54319;52.038;4.640;2022-07-22T14:50:10;1.85;;;1.30;;
67456;SDS011;54319;52.038;4.640;2022-07-22T14:52:38;2.67;;;1.20;;
67456;SDS011;54319;52.038;4.640;2022-07-22T14:55:05;2.65;;;1.33;;
67456;SDS011;54319;52.038;4.640;2022-07-22T15:00:00;7.63;;;1.50;;
67456;SDS011;54319;52.038;4.640;2022-07-22T15:02:27;4.50;;;1.30;;
67456;SDS011;54319;52.038;4.640;2022-07-22T15:04:54;1.70;;;1.23;;
67456;SDS011;54319;52.038;4.640;2022-07-22T15:07:21;2.67;;;1.33;;
67456;SDS011;54319;52.038;4.640;2022-07-22T15:09:49;3.53;;;1.40;;
67456;SDS011;54319;52.038;4.640;2022-07-22T15:12:15;2.90;;;1.70;;
67456;SDS011;54319;52.038;4.640;2022-07-22T15:17:10;1.13;;;1.00;;
67456;SDS011;54319;52.038;4.640;2022-07-22T15:19:38;1.67;;;1.10;;
67456;SDS011;54319;52.038;4.640;2022-07-22T15:22:04;2.50;;;1.40;;
67456;SDS011;54319;52.038;4.640;2022-07-22T15:24:31;2.67;;;1.50;;
67456;SDS011;54319;52.038;4.640;2022-07-22T15:26:59;2.42;;;1.30;;
67456;SDS011;54319;52.038;4.640;2022-07-22T15:29:25;3.95;;;1.63;;
67456;SDS011;54319;52.038;4.640;2022-07-22T15:31:52;5.55;;;1.60;;
67456;SDS011;54319;52.038;4.640;2022-07-22T15:34:20;4.40;;;1.60;;
67456;SDS011;54319;52.038;4.640;2022-07-22T15:36:47;4.45;;;1.95;;
67456;SDS011;54319;52.038;4.640;2022-07-22T15:39:14;3.53;;;1.70;;
67456;SDS011;54319;52.038;4.640;2022-07-22T15:44:07;3.35;;;1.90;;
67456;SDS011;54319;52.038;4.640;2022-07-22T15:46:35;3.20;;;1.85;;
67456;SDS011;54319;52.038;4.640;2022-07-22T15:49:02;2.60;;;1.73;;
67456;SDS011;54319;52.038;4.640;2022-07-22T15:51:31;2.38;;;1.77;;
67456;SDS011;54319;52.038;4.640;2022-07-22T15:53:58;2.85;;;1.73;;
67456;SDS011;54319;52.038;4.640;2022-07-22T15:56:25;2.28;;;1.60;;
67456;SDS011;54319;52.038;4.640;2022-07-22T15:58:51;3.03;;;1.70;;
67456;SDS011;54319;52.038;4.640;2022-07-22T16:01:36;3.35;;;1.52;;